DLH10B SCEL-SAEZ
Flight info
| Callsign | DLH10B |
|---|---|
| Flight time | 1h 22m |
| Altitude | 39000 |
| Route | SCEL ALBA7A ALBAL UM424 ASADA ASAD7U SAEZ |
| Aircraft | A20N/M-VGD/A |
Departure
| Time | 2026-05-05 20:52 |
|---|---|
| Airport | Comodoro Arturo Merino Benítez International Airport (SCEL) |
Arrival
| Time | 2026-05-05 22:15 |
|---|---|
| Airport | Ezeiza International Airport - Ministro Pistarini (SAEZ) |
| Time | Latitude | Longitude | Altitude | Speed | Heading |
|---|---|---|---|---|---|
| 2026-05-05 20:26 | -33.39694 | -70.79008 | 1559 ft | 0 kts | 359° |
| 2026-05-05 20:39 | -33.39698 | -70.79008 | 1559 ft | 1 kts | 359° |
| 2026-05-05 20:39 | -33.39713 | -70.79008 | 1559 ft | 2 kts | 7° |
| 2026-05-05 20:39 | -33.39727 | -70.79012 | 1559 ft | 2 kts | 45° |
| 2026-05-05 20:39 | -33.39733 | -70.79022 | 1559 ft | 0 kts | 84° |
| 2026-05-05 20:44 | -33.39735 | -70.79014 | 1559 ft | 2 kts | 104° |
| 2026-05-05 20:44 | -33.39740 | -70.78988 | 1559 ft | 5 kts | 104° |
| 2026-05-05 20:44 | -33.39746 | -70.78936 | 1559 ft | 8 kts | 87° |
| 2026-05-05 20:45 | -33.39733 | -70.78785 | 1559 ft | 11 kts | 44° |
| 2026-05-05 20:45 | -33.39653 | -70.78777 | 1559 ft | 14 kts | 357° |
| 2026-05-05 20:45 | -33.39545 | -70.78783 | 1559 ft | 17 kts | 357° |
| 2026-05-05 20:46 | -33.39413 | -70.78790 | 1558 ft | 20 kts | 357° |
| 2026-05-05 20:46 | -33.39263 | -70.78798 | 1558 ft | 23 kts | 358° |
| 2026-05-05 20:46 | -33.39090 | -70.78805 | 1557 ft | 26 kts | 356° |
| 2026-05-05 20:46 | -33.38924 | -70.78817 | 1556 ft | 24 kts | 358° |
| 2026-05-05 20:47 | -33.38748 | -70.78825 | 1556 ft | 27 kts | 357° |
| 2026-05-05 20:47 | -33.38555 | -70.78836 | 1556 ft | 29 kts | 359° |
| 2026-05-05 20:47 | -33.38350 | -70.78848 | 1555 ft | 30 kts | 358° |
| 2026-05-05 20:47 | -33.38157 | -70.78859 | 1555 ft | 24 kts | 356° |
| 2026-05-05 20:48 | -33.37982 | -70.78870 | 1555 ft | 26 kts | 359° |
| 2026-05-05 20:48 | -33.37794 | -70.78877 | 1554 ft | 26 kts | 357° |
| 2026-05-05 20:48 | -33.37627 | -70.78852 | 1554 ft | 19 kts | 51° |
| 2026-05-05 20:48 | -33.37624 | -70.78814 | 1554 ft | 5 kts | 89° |
| 2026-05-05 20:49 | -33.37623 | -70.78798 | 1554 ft | 0 kts | 89° |
| 2026-05-05 20:50 | -33.37623 | -70.78784 | 1554 ft | 3 kts | 88° |
| 2026-05-05 20:50 | -33.37622 | -70.78742 | 1554 ft | 7 kts | 90° |
| 2026-05-05 20:50 | -33.37640 | -70.78683 | 1554 ft | 8 kts | 129° |
| 2026-05-05 20:51 | -33.37699 | -70.78665 | 1554 ft | 10 kts | 176° |
| 2026-05-05 20:51 | -33.37866 | -70.78654 | 1554 ft | 54 kts | 178° |
| 2026-05-05 20:51 | -33.38459 | -70.78621 | 1556 ft | 113 kts | 177° |
| 2026-05-05 20:51 | -33.39399 | -70.78551 | 1607 ft | 153 kts | 175° |
| 2026-05-05 20:52 | -33.40491 | -70.78485 | 2036 ft | 160 kts | 175° |
| 2026-05-05 20:52 | -33.41607 | -70.78417 | 2702 ft | 157 kts | 177° |
| 2026-05-05 20:52 | -33.42722 | -70.78349 | 3209 ft | 163 kts | 179° |
| 2026-05-05 20:52 | -33.43877 | -70.78293 | 3675 ft | 173 kts | 179° |
| 2026-05-05 20:53 | -33.45156 | -70.78239 | 3977 ft | 195 kts | 178° |
| 2026-05-05 20:53 | -33.46601 | -70.78166 | 4322 ft | 221 kts | 177° |
| 2026-05-05 20:53 | -33.48228 | -70.78071 | 4821 ft | 246 kts | 176° |
| 2026-05-05 20:53 | -33.50005 | -70.77956 | 5357 ft | 272 kts | 177° |
| 2026-05-05 20:54 | -33.51974 | -70.77827 | 6043 ft | 288 kts | 177° |
| 2026-05-05 20:54 | -33.53994 | -70.77696 | 6988 ft | 294 kts | 178° |
| 2026-05-05 20:54 | -33.56065 | -70.77564 | 7861 ft | 301 kts | 178° |
| 2026-05-05 20:54 | -33.58176 | -70.77435 | 8785 ft | 307 kts | 179° |
| 2026-05-05 20:55 | -33.60313 | -70.77303 | 9671 ft | 314 kts | 179° |
| 2026-05-05 20:55 | -33.62531 | -70.77167 | 10406 ft | 327 kts | 179° |
| 2026-05-05 20:55 | -33.64889 | -70.77025 | 10759 ft | 351 kts | 179° |
| 2026-05-05 20:55 | -33.67409 | -70.76872 | 11157 ft | 371 kts | 179° |
| 2026-05-05 20:56 | -33.70006 | -70.76709 | 11966 ft | 376 kts | 179° |
| 2026-05-05 20:56 | -33.72639 | -70.76544 | 12810 ft | 382 kts | 180° |
| 2026-05-05 20:56 | -33.75321 | -70.76377 | 13628 ft | 388 kts | 180° |
| 2026-05-05 20:56 | -33.78029 | -70.76206 | 14407 ft | 393 kts | 180° |
| 2026-05-05 20:57 | -33.80736 | -70.75530 | 15142 ft | 404 kts | 161° |
| 2026-05-05 20:57 | -33.83208 | -70.73854 | 15833 ft | 413 kts | 141° |
| 2026-05-05 20:57 | -33.85190 | -70.71326 | 16495 ft | 418 kts | 122° |
| 2026-05-05 20:57 | -33.86494 | -70.68246 | 17151 ft | 420 kts | 108° |
| 2026-05-05 20:58 | -33.87461 | -70.64927 | 17829 ft | 425 kts | 105° |
| 2026-05-05 20:58 | -33.88448 | -70.61555 | 18497 ft | 431 kts | 107° |
| 2026-05-05 20:58 | -33.89558 | -70.58158 | 19134 ft | 437 kts | 110° |
| 2026-05-05 20:58 | -33.90767 | -70.54758 | 19741 ft | 443 kts | 111° |
| 2026-05-05 20:59 | -33.92039 | -70.51347 | 20347 ft | 450 kts | 112° |
| 2026-05-05 20:59 | -33.93357 | -70.47883 | 20907 ft | 457 kts | 113° |
| 2026-05-05 20:59 | -33.94675 | -70.44432 | 21582 ft | 462 kts | 113° |
| 2026-05-05 20:59 | -33.96039 | -70.40856 | 22197 ft | 467 kts | 113° |
| 2026-05-05 21:00 | -33.97403 | -70.37271 | 22778 ft | 473 kts | 113° |
| 2026-05-05 21:00 | -33.98766 | -70.33685 | 23316 ft | 479 kts | 114° |
| 2026-05-05 21:00 | -34.00161 | -70.30011 | 23905 ft | 482 kts | 114° |
| 2026-05-05 21:00 | -34.01565 | -70.26303 | 24343 ft | 487 kts | 114° |
| 2026-05-05 21:01 | -34.02972 | -70.22574 | 24848 ft | 490 kts | 114° |
| 2026-05-05 21:01 | -34.04391 | -70.18812 | 25276 ft | 496 kts | 114° |
| 2026-05-05 21:01 | -34.05830 | -70.14999 | 25719 ft | 501 kts | 114° |
| 2026-05-05 21:01 | -34.07283 | -70.11141 | 25964 ft | 510 kts | 114° |
| 2026-05-05 21:02 | -34.08744 | -70.07256 | 26634 ft | 507 kts | 114° |
| 2026-05-05 21:02 | -34.10211 | -70.03354 | 27055 ft | 513 kts | 114° |
| 2026-05-05 21:02 | -34.11672 | -69.99461 | 27441 ft | 518 kts | 114° |
| 2026-05-05 21:02 | -34.13163 | -69.95488 | 27944 ft | 519 kts | 114° |
| 2026-05-05 21:03 | -34.14654 | -69.91507 | 28313 ft | 522 kts | 114° |
| 2026-05-05 21:03 | -34.16148 | -69.87503 | 28610 ft | 528 kts | 114° |
| 2026-05-05 21:03 | -34.17595 | -69.83418 | 29068 ft | 527 kts | 109° |
| 2026-05-05 21:03 | -34.18651 | -69.79170 | 29398 ft | 528 kts | 100° |
| 2026-05-05 21:04 | -34.19286 | -69.74811 | 29720 ft | 529 kts | 97° |
| 2026-05-05 21:04 | -34.19884 | -69.70398 | 30074 ft | 533 kts | 97° |
| 2026-05-05 21:04 | -34.20496 | -69.65959 | 30383 ft | 535 kts | 97° |
| 2026-05-05 21:04 | -34.21110 | -69.61508 | 30717 ft | 539 kts | 97° |
| 2026-05-05 21:05 | -34.21727 | -69.57037 | 31035 ft | 540 kts | 97° |
| 2026-05-05 21:05 | -34.22338 | -69.52586 | 31222 ft | 543 kts | 97° |
| 2026-05-05 21:05 | -34.22947 | -69.48130 | 31992 ft | 532 kts | 97° |
| 2026-05-05 21:05 | -34.23545 | -69.43747 | 32702 ft | 526 kts | 97° |
| 2026-05-05 21:06 | -34.24139 | -69.39381 | 33019 ft | 528 kts | 97° |
| 2026-05-05 21:06 | -34.24733 | -69.34988 | 33221 ft | 531 kts | 97° |
| 2026-05-05 21:06 | -34.25327 | -69.30591 | 33612 ft | 531 kts | 97° |
| 2026-05-05 21:06 | -34.25921 | -69.26179 | 33944 ft | 531 kts | 97° |
| 2026-05-05 21:07 | -34.26514 | -69.21763 | 34231 ft | 531 kts | 97° |
| 2026-05-05 21:07 | -34.26905 | -69.18843 | 34426 ft | 531 kts | 97° |
| 2026-05-05 21:07 | -34.27495 | -69.14424 | 34735 ft | 531 kts | 97° |
| 2026-05-05 21:07 | -34.28083 | -69.10012 | 34992 ft | 532 kts | 97° |
| 2026-05-05 21:08 | -34.28671 | -69.05585 | 35253 ft | 533 kts | 97° |
| 2026-05-05 21:08 | -34.29257 | -69.01155 | 35511 ft | 534 kts | 97° |
| 2026-05-05 21:08 | -34.29838 | -68.96718 | 35764 ft | 534 kts | 97° |
| 2026-05-05 21:08 | -34.30419 | -68.92263 | 36016 ft | 535 kts | 97° |
| 2026-05-05 21:09 | -34.30998 | -68.87816 | 36257 ft | 536 kts | 97° |
| 2026-05-05 21:09 | -34.31578 | -68.83354 | 36428 ft | 538 kts | 97° |
| 2026-05-05 21:09 | -34.32152 | -68.78921 | 36571 ft | 541 kts | 97° |
| 2026-05-05 21:09 | -34.32734 | -68.74423 | 36794 ft | 541 kts | 97° |
| 2026-05-05 21:10 | -34.33314 | -68.69923 | 37043 ft | 541 kts | 97° |
| 2026-05-05 21:10 | -34.33894 | -68.65413 | 37298 ft | 541 kts | 97° |
| 2026-05-05 21:10 | -34.34469 | -68.60918 | 37614 ft | 540 kts | 97° |
| 2026-05-05 21:10 | -34.35042 | -68.56432 | 37806 ft | 540 kts | 97° |
| 2026-05-05 21:11 | -34.35615 | -68.51925 | 37959 ft | 541 kts | 97° |
| 2026-05-05 21:11 | -34.36189 | -68.47399 | 38077 ft | 543 kts | 97° |
| 2026-05-05 21:11 | -34.36756 | -68.42913 | 38260 ft | 544 kts | 97° |
| 2026-05-05 21:11 | -34.37329 | -68.38368 | 38445 ft | 544 kts | 97° |
| 2026-05-05 21:12 | -34.37881 | -68.33980 | 38600 ft | 545 kts | 97° |
| 2026-05-05 21:12 | -34.38443 | -68.29499 | 38780 ft | 544 kts | 97° |
| 2026-05-05 21:12 | -34.39565 | -68.20504 | 38858 ft | 542 kts | 97° |
| 2026-05-05 21:13 | -34.40686 | -68.11460 | 38855 ft | 544 kts | 97° |
| 2026-05-05 21:13 | -34.41804 | -68.02385 | 38853 ft | 543 kts | 97° |
| 2026-05-05 21:14 | -34.42908 | -67.93373 | 38845 ft | 543 kts | 97° |
| 2026-05-05 21:14 | -34.44011 | -67.84304 | 38850 ft | 543 kts | 97° |
| 2026-05-05 21:15 | -34.45101 | -67.75230 | 38855 ft | 543 kts | 96° |
| 2026-05-05 21:15 | -34.46151 | -67.66153 | 38849 ft | 543 kts | 96° |
| 2026-05-05 21:16 | -34.47190 | -67.57134 | 38853 ft | 544 kts | 96° |
| 2026-05-05 21:16 | -34.48233 | -67.48045 | 38835 ft | 543 kts | 96° |
| 2026-05-05 21:17 | -34.49269 | -67.38968 | 38849 ft | 543 kts | 96° |
| 2026-05-05 21:17 | -34.50300 | -67.29871 | 38849 ft | 544 kts | 96° |
| 2026-05-05 21:18 | -34.51323 | -67.20786 | 38825 ft | 544 kts | 96° |
| 2026-05-05 21:18 | -34.52338 | -67.11689 | 38834 ft | 544 kts | 96° |
| 2026-05-05 21:19 | -34.53343 | -67.02637 | 38854 ft | 545 kts | 96° |
| 2026-05-05 21:19 | -34.54349 | -66.93526 | 38853 ft | 545 kts | 96° |
| 2026-05-05 21:20 | -34.55348 | -66.84401 | 38848 ft | 545 kts | 96° |
| 2026-05-05 21:20 | -34.56340 | -66.75276 | 38851 ft | 544 kts | 96° |
| 2026-05-05 21:21 | -34.57319 | -66.66207 | 38854 ft | 545 kts | 96° |
| 2026-05-05 21:21 | -34.58298 | -66.57068 | 38845 ft | 545 kts | 96° |
| 2026-05-05 21:22 | -34.59270 | -66.47931 | 38850 ft | 545 kts | 96° |
| 2026-05-05 21:22 | -34.60231 | -66.38841 | 38849 ft | 545 kts | 96° |
| 2026-05-05 21:23 | -34.61187 | -66.29717 | 38861 ft | 544 kts | 96° |
| 2026-05-05 21:23 | -34.62129 | -66.20658 | 38856 ft | 545 kts | 96° |
| 2026-05-05 21:24 | -34.63075 | -66.11507 | 38852 ft | 545 kts | 96° |
| 2026-05-05 21:24 | -34.64013 | -66.02366 | 38853 ft | 545 kts | 96° |
| 2026-05-05 21:25 | -34.64945 | -65.93213 | 38867 ft | 545 kts | 96° |
| 2026-05-05 21:25 | -34.65868 | -65.84069 | 38868 ft | 546 kts | 96° |
| 2026-05-05 21:26 | -34.66787 | -65.74908 | 38867 ft | 546 kts | 96° |
| 2026-05-05 21:26 | -34.67692 | -65.65807 | 38875 ft | 547 kts | 96° |
| 2026-05-05 21:27 | -34.68596 | -65.56645 | 38892 ft | 546 kts | 96° |
| 2026-05-05 21:27 | -34.69492 | -65.47504 | 38872 ft | 544 kts | 96° |
| 2026-05-05 21:28 | -34.70382 | -65.38361 | 38871 ft | 545 kts | 96° |
| 2026-05-05 21:28 | -34.71264 | -65.29194 | 38861 ft | 549 kts | 96° |
| 2026-05-05 21:29 | -34.72142 | -65.19977 | 38878 ft | 550 kts | 96° |
| 2026-05-05 21:29 | -34.73012 | -65.10804 | 38874 ft | 545 kts | 96° |
| 2026-05-05 21:30 | -34.73875 | -65.01612 | 38873 ft | 546 kts | 96° |
| 2026-05-05 21:30 | -34.74721 | -64.92530 | 38882 ft | 547 kts | 96° |
| 2026-05-05 21:31 | -34.75571 | -64.83334 | 38870 ft | 547 kts | 96° |
| 2026-05-05 21:31 | -34.76414 | -64.74146 | 38872 ft | 545 kts | 96° |
| 2026-05-05 21:32 | -34.77245 | -64.64995 | 38859 ft | 542 kts | 96° |
| 2026-05-05 21:32 | -34.78081 | -64.55830 | 38881 ft | 547 kts | 96° |
| 2026-05-05 21:33 | -34.78919 | -64.46643 | 38884 ft | 546 kts | 96° |
| 2026-05-05 21:33 | -34.79748 | -64.37455 | 38884 ft | 546 kts | 96° |
| 2026-05-05 21:34 | -34.80566 | -64.28290 | 38881 ft | 549 kts | 96° |
| 2026-05-05 21:34 | -34.81381 | -64.19088 | 38885 ft | 548 kts | 96° |
| 2026-05-05 21:35 | -34.82191 | -64.09868 | 38880 ft | 548 kts | 96° |
| 2026-05-05 21:35 | -34.82994 | -64.00641 | 38880 ft | 548 kts | 96° |
| 2026-05-05 21:36 | -34.83789 | -63.91413 | 38881 ft | 548 kts | 96° |
| 2026-05-05 21:36 | -34.84575 | -63.82189 | 38882 ft | 548 kts | 96° |
| 2026-05-05 21:37 | -34.85351 | -63.73011 | 38869 ft | 548 kts | 96° |
| 2026-05-05 21:37 | -34.86122 | -63.63795 | 38880 ft | 547 kts | 96° |
| 2026-05-05 21:38 | -34.86888 | -63.54567 | 38876 ft | 547 kts | 96° |
| 2026-05-05 21:38 | -34.87652 | -63.45338 | 38877 ft | 547 kts | 96° |
| 2026-05-05 21:39 | -34.88412 | -63.36113 | 38878 ft | 546 kts | 96° |
| 2026-05-05 21:39 | -34.89160 | -63.26962 | 38892 ft | 547 kts | 96° |
| 2026-05-05 21:40 | -34.89905 | -63.17736 | 38893 ft | 546 kts | 96° |
| 2026-05-05 21:40 | -34.90641 | -63.08532 | 38883 ft | 544 kts | 96° |
| 2026-05-05 21:41 | -34.91364 | -62.99413 | 38884 ft | 544 kts | 96° |
| 2026-05-05 21:41 | -34.92085 | -62.90228 | 38885 ft | 544 kts | 96° |
| 2026-05-05 21:42 | -34.92795 | -62.81095 | 38868 ft | 543 kts | 96° |
| 2026-05-05 21:42 | -34.93500 | -62.71924 | 38880 ft | 543 kts | 96° |
| 2026-05-05 21:43 | -34.94196 | -62.62789 | 38916 ft | 543 kts | 96° |
| 2026-05-05 21:43 | -34.94879 | -62.53620 | 38899 ft | 543 kts | 96° |
| 2026-05-05 21:44 | -34.95552 | -62.44481 | 38897 ft | 539 kts | 96° |
| 2026-05-05 21:44 | -34.96215 | -62.35408 | 38900 ft | 540 kts | 96° |
| 2026-05-05 21:45 | -34.96822 | -62.26287 | 38901 ft | 540 kts | 93° |
| 2026-05-05 21:45 | -34.97085 | -62.17130 | 38896 ft | 538 kts | 92° |
| 2026-05-05 21:46 | -34.97333 | -62.08051 | 38899 ft | 538 kts | 92° |
| 2026-05-05 21:46 | -34.97586 | -61.99815 | 38910 ft | 540 kts | 92° |
| 2026-05-05 21:47 | -34.97872 | -61.90665 | 38889 ft | 539 kts | 92° |
| 2026-05-05 21:47 | -34.98150 | -61.81560 | 38906 ft | 534 kts | 92° |
| 2026-05-05 21:48 | -34.98419 | -61.72540 | 38900 ft | 536 kts | 92° |
| 2026-05-05 21:48 | -34.98683 | -61.63456 | 38903 ft | 536 kts | 92° |
| 2026-05-05 21:49 | -34.98939 | -61.54348 | 38911 ft | 536 kts | 92° |
| 2026-05-05 21:49 | -34.99178 | -61.45248 | 38905 ft | 536 kts | 92° |
| 2026-05-05 21:50 | -34.99410 | -61.36222 | 38910 ft | 536 kts | 92° |
| 2026-05-05 21:50 | -34.99292 | -61.27138 | 38911 ft | 534 kts | 83° |
| 2026-05-05 21:51 | -34.98474 | -61.18122 | 38908 ft | 534 kts | 82° |
| 2026-05-05 21:51 | -34.97657 | -61.09115 | 38875 ft | 535 kts | 83° |
| 2026-05-05 21:52 | -34.96850 | -61.00141 | 38170 ft | 536 kts | 83° |
| 2026-05-05 21:52 | -34.96442 | -60.95626 | 37538 ft | 536 kts | 83° |
| 2026-05-05 21:52 | -34.96032 | -60.91100 | 36855 ft | 535 kts | 83° |
| 2026-05-05 21:53 | -34.95623 | -60.86599 | 36183 ft | 534 kts | 83° |
| 2026-05-05 21:53 | -34.95212 | -60.82100 | 35439 ft | 533 kts | 83° |
| 2026-05-05 21:53 | -34.94939 | -60.79124 | 34956 ft | 532 kts | 83° |
| 2026-05-05 21:53 | -34.94526 | -60.74637 | 34236 ft | 529 kts | 82° |
| 2026-05-05 21:54 | -34.94114 | -60.70185 | 33502 ft | 526 kts | 82° |
| 2026-05-05 21:54 | -34.93702 | -60.65750 | 32592 ft | 526 kts | 82° |
| 2026-05-05 21:54 | -34.93294 | -60.61373 | 31687 ft | 526 kts | 82° |
| 2026-05-05 21:54 | -34.92874 | -60.56888 | 30765 ft | 526 kts | 82° |
| 2026-05-05 21:55 | -34.92462 | -60.52511 | 29829 ft | 526 kts | 82° |
| 2026-05-05 21:55 | -34.92045 | -60.48090 | 28880 ft | 524 kts | 83° |
| 2026-05-05 21:55 | -34.91631 | -60.43721 | 28238 ft | 516 kts | 83° |
| 2026-05-05 21:55 | -34.91220 | -60.39393 | 27561 ft | 509 kts | 83° |
| 2026-05-05 21:56 | -34.90814 | -60.35134 | 26894 ft | 502 kts | 83° |
| 2026-05-05 21:56 | -34.90411 | -60.30925 | 26213 ft | 497 kts | 83° |
| 2026-05-05 21:56 | -34.90010 | -60.26756 | 25529 ft | 492 kts | 83° |
| 2026-05-05 21:56 | -34.89618 | -60.22692 | 24872 ft | 487 kts | 83° |
| 2026-05-05 21:57 | -34.89224 | -60.18620 | 24237 ft | 481 kts | 83° |
| 2026-05-05 21:57 | -34.88833 | -60.14598 | 23653 ft | 475 kts | 83° |
| 2026-05-05 21:57 | -34.88444 | -60.10604 | 22939 ft | 470 kts | 83° |
| 2026-05-05 21:57 | -34.88060 | -60.06676 | 22234 ft | 465 kts | 83° |
| 2026-05-05 21:58 | -34.87678 | -60.02790 | 21549 ft | 460 kts | 83° |
| 2026-05-05 21:58 | -34.87299 | -59.98939 | 20870 ft | 455 kts | 83° |
| 2026-05-05 21:58 | -34.86921 | -59.95124 | 20208 ft | 450 kts | 83° |
| 2026-05-05 21:58 | -34.86553 | -59.91405 | 19569 ft | 446 kts | 83° |
| 2026-05-05 21:59 | -34.86182 | -59.87672 | 18925 ft | 441 kts | 83° |
| 2026-05-05 21:59 | -34.85813 | -59.83973 | 18290 ft | 438 kts | 83° |
| 2026-05-05 21:59 | -34.85446 | -59.80302 | 17604 ft | 433 kts | 83° |
| 2026-05-05 21:59 | -34.85084 | -59.76692 | 16978 ft | 427 kts | 82° |
| 2026-05-05 22:00 | -34.84725 | -59.73128 | 16355 ft | 421 kts | 82° |
| 2026-05-05 22:00 | -34.84370 | -59.69609 | 15742 ft | 416 kts | 82° |
| 2026-05-05 22:00 | -34.84018 | -59.66134 | 15135 ft | 411 kts | 82° |
| 2026-05-05 22:00 | -34.83671 | -59.62712 | 14533 ft | 407 kts | 82° |
| 2026-05-05 22:01 | -34.83325 | -59.59310 | 13953 ft | 402 kts | 82° |
| 2026-05-05 22:01 | -34.82982 | -59.55950 | 13345 ft | 397 kts | 82° |
| 2026-05-05 22:01 | -34.82641 | -59.52631 | 12733 ft | 392 kts | 82° |
| 2026-05-05 22:01 | -34.82308 | -59.49398 | 12169 ft | 387 kts | 83° |
| 2026-05-05 22:02 | -34.81974 | -59.46168 | 11606 ft | 382 kts | 83° |
| 2026-05-05 22:02 | -34.81644 | -59.42974 | 11040 ft | 378 kts | 83° |
| 2026-05-05 22:02 | -34.81316 | -59.39807 | 10495 ft | 373 kts | 83° |
| 2026-05-05 22:02 | -34.80997 | -59.36735 | 10315 ft | 358 kts | 83° |
| 2026-05-05 22:03 | -34.80696 | -59.33841 | 10177 ft | 343 kts | 83° |
| 2026-05-05 22:03 | -34.80407 | -59.31075 | 10051 ft | 329 kts | 83° |
| 2026-05-05 22:03 | -34.80124 | -59.28366 | 9933 ft | 316 kts | 84° |
| 2026-05-05 22:03 | -34.79852 | -59.25767 | 9580 ft | 306 kts | 83° |
| 2026-05-05 22:04 | -34.79585 | -59.23195 | 8883 ft | 307 kts | 83° |
| 2026-05-05 22:04 | -34.79321 | -59.20643 | 8431 ft | 299 kts | 82° |
| 2026-05-05 22:04 | -34.79063 | -59.18170 | 8054 ft | 292 kts | 82° |
| 2026-05-05 22:04 | -34.78807 | -59.15714 | 7660 ft | 292 kts | 81° |
| 2026-05-05 22:05 | -34.78549 | -59.13261 | 7284 ft | 292 kts | 81° |
| 2026-05-05 22:05 | -34.78291 | -59.10815 | 6898 ft | 292 kts | 80° |
| 2026-05-05 22:05 | -34.78032 | -59.08361 | 6506 ft | 293 kts | 79° |
| 2026-05-05 22:05 | -34.77771 | -59.05899 | 6100 ft | 293 kts | 79° |
| 2026-05-05 22:06 | -34.77507 | -59.03447 | 5706 ft | 293 kts | 80° |
| 2026-05-05 22:06 | -34.77241 | -59.00993 | 5310 ft | 291 kts | 81° |
| 2026-05-05 22:06 | -34.76979 | -58.98567 | 5029 ft | 286 kts | 81° |
| 2026-05-05 22:06 | -34.76729 | -58.96237 | 4897 ft | 275 kts | 81° |
| 2026-05-05 22:07 | -34.76488 | -58.93978 | 4803 ft | 263 kts | 81° |
| 2026-05-05 22:07 | -34.76257 | -58.91819 | 4710 ft | 252 kts | 81° |
| 2026-05-05 22:07 | -34.76082 | -58.89734 | 4612 ft | 242 kts | 87° |
| 2026-05-05 22:07 | -34.76170 | -58.87728 | 4524 ft | 233 kts | 97° |
| 2026-05-05 22:08 | -34.76440 | -58.85805 | 4318 ft | 229 kts | 101° |
| 2026-05-05 22:08 | -34.76776 | -58.83930 | 4084 ft | 228 kts | 102° |
| 2026-05-05 22:08 | -34.77106 | -58.82093 | 3979 ft | 217 kts | 101° |
| 2026-05-05 22:08 | -34.77415 | -58.80371 | 3927 ft | 195 kts | 102° |
| 2026-05-05 22:09 | -34.77687 | -58.78858 | 3767 ft | 172 kts | 101° |
| 2026-05-05 22:09 | -34.77933 | -58.77490 | 3579 ft | 159 kts | 101° |
| 2026-05-05 22:09 | -34.78158 | -58.76235 | 3401 ft | 145 kts | 101° |
| 2026-05-05 22:09 | -34.78369 | -58.75053 | 3225 ft | 144 kts | 100° |
| 2026-05-05 22:10 | -34.78582 | -58.73868 | 3042 ft | 142 kts | 100° |
| 2026-05-05 22:10 | -34.78791 | -58.72704 | 2861 ft | 140 kts | 101° |
| 2026-05-05 22:10 | -34.78995 | -58.71566 | 2686 ft | 139 kts | 100° |
| 2026-05-05 22:10 | -34.79202 | -58.70411 | 2490 ft | 138 kts | 101° |
| 2026-05-05 22:11 | -34.79407 | -58.69272 | 2327 ft | 137 kts | 101° |
| 2026-05-05 22:11 | -34.79607 | -58.68156 | 2138 ft | 131 kts | 101° |
| 2026-05-05 22:11 | -34.79798 | -58.67089 | 1979 ft | 129 kts | 101° |
| 2026-05-05 22:11 | -34.79991 | -58.66018 | 1814 ft | 130 kts | 101° |
| 2026-05-05 22:12 | -34.80183 | -58.64945 | 1651 ft | 128 kts | 101° |
| 2026-05-05 22:12 | -34.80372 | -58.63893 | 1467 ft | 128 kts | 101° |
| 2026-05-05 22:12 | -34.80560 | -58.62846 | 1300 ft | 126 kts | 100° |
| 2026-05-05 22:12 | -34.80747 | -58.61798 | 1135 ft | 126 kts | 101° |
| 2026-05-05 22:13 | -34.80932 | -58.60771 | 979 ft | 125 kts | 101° |
| 2026-05-05 22:13 | -34.81111 | -58.59765 | 827 ft | 124 kts | 101° |
| 2026-05-05 22:13 | -34.81295 | -58.58746 | 664 ft | 123 kts | 102° |
| 2026-05-05 22:13 | -34.81481 | -58.57710 | 487 ft | 127 kts | 102° |
| 2026-05-05 22:14 | -34.81667 | -58.56673 | 328 ft | 123 kts | 100° |
| 2026-05-05 22:14 | -34.81850 | -58.55648 | 169 ft | 124 kts | 101° |
| 2026-05-05 22:14 | -34.82031 | -58.54630 | 96 ft | 124 kts | 101° |
| 2026-05-05 22:14 | -34.82196 | -58.53664 | 62 ft | 99 kts | 103° |
| 2026-05-05 22:15 | -34.82304 | -58.53084 | 70 ft | 42 kts | 103° |
| 2026-05-05 22:15 | -34.82360 | -58.52808 | 63 ft | 44 kts | 103° |
| 2026-05-05 22:15 | -34.82435 | -58.52382 | 65 ft | 54 kts | 101° |
| 2026-05-05 22:15 | -34.82498 | -58.51966 | 67 ft | 26 kts | 102° |
| 2026-05-05 22:16 | -34.82503 | -58.51937 | 67 ft | 1 kts | 102° |
| 2026-05-05 22:16 | -34.82505 | -58.51911 | 68 ft | 6 kts | 91° |
| 2026-05-05 22:16 | -34.82498 | -58.51854 | 60 ft | 11 kts | 63° |
| 2026-05-05 22:16 | -34.82407 | -58.51803 | 62 ft | 18 kts | 8° |
| 2026-05-05 22:17 | -34.82273 | -58.51806 | 61 ft | 19 kts | 311° |
| 2026-05-05 22:17 | -34.82241 | -58.51953 | 67 ft | 18 kts | 281° |
| 2026-05-05 22:17 | -34.82204 | -58.52113 | 68 ft | 21 kts | 285° |
| 2026-05-05 22:17 | -34.82165 | -58.52300 | 63 ft | 24 kts | 281° |
| 2026-05-05 22:18 | -34.82133 | -58.52481 | 67 ft | 14 kts | 284° |
| 2026-05-05 22:18 | -34.82107 | -58.52609 | 65 ft | 17 kts | 284° |
| 2026-05-05 22:18 | -34.82077 | -58.52762 | 60 ft | 20 kts | 283° |
| 2026-05-05 22:18 | -34.82042 | -58.52941 | 66 ft | 24 kts | 283° |
| 2026-05-05 22:19 | -34.82000 | -58.53147 | 65 ft | 25 kts | 283° |
| 2026-05-05 22:19 | -34.81957 | -58.53361 | 68 ft | 27 kts | 284° |
| 2026-05-05 22:19 | -34.81908 | -58.53591 | 65 ft | 29 kts | 289° |
| 2026-05-05 22:19 | -34.81756 | -58.53716 | 65 ft | 27 kts | 324° |
| 2026-05-05 22:20 | -34.81685 | -58.53908 | 65 ft | 12 kts | 315° |
| 2026-05-05 22:20 | -34.81680 | -58.53917 | 67 ft | 0 kts | 294° |
| 2026-05-05 22:20 | -34.81686 | -58.53940 | 66 ft | 3 kts | 230° |
| 2026-05-05 22:20 | -34.81720 | -58.53974 | 64 ft | 9 kts | 214° |
| 2026-05-05 22:21 | -34.81760 | -58.54038 | 69 ft | 11 kts | 279° |
| 2026-05-05 22:21 | -34.81700 | -58.54093 | 64 ft | 12 kts | 1° |
| 2026-05-05 22:21 | -34.81683 | -58.54090 | 64 ft | 0 kts | 7° |